Time;durP1;ratioP1;P1;durP2;ratioP2;P2;SDS_P1;SDS_P2;PMS_P1;PMS_P2;Temp;Humidity;BMP_temperature;BMP_pressure;BME280_temperature;BME280_humidity;BME280_pressure;Samples;Min_cycle;Max_cycle;Signal;HPM_P1;HPM_P2
2023/10/15 00:02:06;;;;;;;9.03;4.20;;;6.60;1.00;;;;;;5079251;28;20548;-63
2023/10/15 00:04:35;;;;;;;11.93;4.97;;;6.60;1.00;;;;;;5079774;28;20518;-63
2023/10/15 00:07:06;;;;;;;14.03;4.60;;;6.50;1.00;;;;;;5079789;28;20483;-63
2023/10/15 00:09:33;;;;;;;12.53;5.00;;;6.40;1.00;;;;;;5079230;28;20481;-63
2023/10/15 00:12:02;;;;;;;14.00;4.90;;;6.40;1.00;;;;;;5078596;28;20455;-62
2023/10/15 00:14:30;;;;;;;9.13;4.77;;;6.50;1.00;;;;;;5079240;28;20469;-63
2023/10/15 00:16:59;;;;;;;15.33;5.17;;;6.50;1.00;;;;;;5079733;28;20552;-62
2023/10/15 00:19:27;;;;;;;7.97;4.50;;;6.40;1.00;;;;;;5079134;28;20497;-63
2023/10/15 00:21:55;;;;;;;8.57;4.40;;;6.40;1.00;;;;;;5078768;28;20559;-63
2023/10/15 00:24:22;;;;;;;8.40;4.37;;;6.40;1.00;;;;;;5079102;28;20508;-63
2023/10/15 00:26:50;;;;;;;11.10;4.17;;;6.30;1.00;;;;;;5079174;28;20913;-63
2023/10/15 00:29:17;;;;;;;9.50;3.50;;;6.30;1.00;;;;;;5079581;28;20457;-63
2023/10/15 00:31:47;;;;;;;6.30;3.70;;;6.30;1.00;;;;;;5079338;28;20457;-63
2023/10/15 00:34:15;;;;;;;9.90;4.60;;;6.30;1.00;;;;;;5078464;28;20461;-63
2023/10/15 00:36:48;;;;;;;8.43;4.03;;;6.20;1.00;;;;;;5079064;28;20547;-63
2023/10/15 00:39:21;;;;;;;9.77;4.33;;;6.20;1.00;;;;;;5078978;28;20489;-63
2023/10/15 00:41:49;;;;;;;7.40;5.20;;;6.10;1.00;;;;;;5078745;28;20504;-62
2023/10/15 00:44:16;;;;;;;12.70;4.77;;;6.10;1.00;;;;;;5078795;28;20460;-63
2023/10/15 00:46:45;;;;;;;7.73;4.20;;;6.10;1.00;;;;;;5079034;28;20493;-63
2023/10/15 00:49:13;;;;;;;8.70;5.10;;;6.10;1.00;;;;;;5078992;28;20486;-63
2023/10/15 00:51:42;;;;;;;10.77;4.47;;;6.10;1.00;;;;;;5078692;28;20457;-63
2023/10/15 00:54:16;;;;;;;8.73;5.23;;;6.10;1.00;;;;;;5078447;28;20531;-62
2023/10/15 00:56:45;;;;;;;7.90;4.57;;;6.20;1.00;;;;;;5078970;28;20464;-62
2023/10/15 00:59:17;;;;;;;9.70;4.40;;;6.10;1.00;;;;;;5078864;28;20456;-62
2023/10/15 01:01:54;;;;;;;9.30;4.60;;;6.20;1.00;;;;;;5078068;28;20460;-62
2023/10/15 01:04:24;;;;;;;10.87;5.37;;;6.10;1.00;;;;;;5078569;28;20461;-62
2023/10/15 01:06:55;;;;;;;9.70;4.70;;;6.20;1.00;;;;;;5078682;28;20475;-63
2023/10/15 01:09:28;;;;;;;8.77;5.00;;;6.10;1.00;;;;;;5077986;28;20503;-63
2023/10/15 01:11:57;;;;;;;10.63;4.93;;;6.00;1.00;;;;;;5078206;28;20456;-63
2023/10/15 01:14:31;;;;;;;9.73;4.50;;;6.00;1.00;;;;;;5078023;28;20463;-62
2023/10/15 01:16:59;;;;;;;7.23;4.77;;;5.90;1.00;;;;;;5078620;28;20461;-62
2023/10/15 01:19:32;;;;;;;6.83;4.10;;;5.80;1.00;;;;;;5077889;28;20459;-62
2023/10/15 01:22:02;;;;;;;9.90;4.70;;;5.80;3.20;;;;;;5076702;28;20457;-63
2023/10/15 01:24:33;;;;;;;5.87;4.07;;;5.70;37.80;;;;;;5077727;28;20463;-62
2023/10/15 01:27:08;;;;;;;8.30;4.83;;;5.70;99.90;;;;;;5077872;28;20504;-62
2023/10/15 01:29:36;;;;;;;10.93;4.23;;;5.60;99.90;;;;;;5078104;28;20519;-63
2023/10/15 01:32:09;;;;;;;9.07;5.10;;;5.70;99.90;;;;;;5076738;28;20468;-62
2023/10/15 01:34:40;;;;;;;10.70;4.00;;;5.60;99.90;;;;;;5077854;28;20530;-62
2023/10/15 01:37:15;;;;;;;11.90;5.17;;;5.70;99.90;;;;;;5078115;28;20765;-63
2023/10/15 01:39:47;;;;;;;14.93;5.70;;;5.90;99.90;;;;;;5077783;28;20834;-63
2023/10/15 01:45:09;;;;;;;9.63;4.73;;;5.90;99.90;;;;;;5077601;28;20527;-63
2023/10/15 01:47:36;;;;;;;10.50;4.53;;;5.90;99.90;;;;;;5077196;28;20457;-62
2023/10/15 01:50:08;;;;;;;10.30;4.50;;;5.90;99.90;;;;;;5077739;28;20492;-62
2023/10/15 01:52:40;;;;;;;7.93;4.90;;;5.80;36.60;;;;;;5077725;28;20521;-62
2023/10/15 01:55:07;;;;;;;9.60;4.37;;;5.70;1.00;;;;;;5077935;28;20432;-62
2023/10/15 01:57:37;;;;;;;12.60;5.10;;;5.90;68.70;;;;;;5077431;28;20465;-62
2023/10/15 02:00:12;;;;;;;11.53;4.97;;;6.00;99.90;;;;;;5077649;28;20549;-63
2023/10/15 02:02:40;;;;;;;11.90;4.90;;;6.20;99.90;;;;;;5077727;28;20468;-63
2023/10/15 02:05:22;;;;;;;13.80;4.80;;;6.30;99.90;;;;;;5077605;28;20461;-63
2023/10/15 02:07:49;;;;;;;9.73;4.00;;;6.50;99.90;;;;;;5077251;28;20468;-63
2023/10/15 02:10:16;;;;;;;11.43;4.10;;;6.60;99.90;;;;;;5077016;28;20978;-63
2023/10/15 02:12:51;;;;;;;11.37;4.57;;;6.70;1.00;;;;;;5076880;28;20491;-63
2023/10/15 02:15:22;;;;;;;16.17;4.80;;;6.80;1.00;;;;;;5077553;28;20461;-63
2023/10/15 02:17:52;;;;;;;7.40;4.50;;;6.90;99.90;;;;;;5077381;28;20908;-62
2023/10/15 02:20:40;;;;;;;7.43;4.50;;;7.00;99.90;;;;;;5077125;28;20465;-63
2023/10/15 02:23:07;;;;;;;11.00;4.20;;;7.10;99.90;;;;;;5077176;28;20460;-62
2023/10/15 02:25:37;;;;;;;7.17;4.30;;;7.10;99.90;;;;;;5076678;28;20527;-63
2023/10/15 02:28:09;;;;;;;11.70;4.80;;;7.10;99.90;;;;;;5077228;28;20457;-63
2023/10/15 02:30:40;;;;;;;10.37;4.10;;;7.20;56.10;;;;;;5077548;28;20509;-62
2023/10/15 02:33:07;;;;;;;9.47;4.60;;;7.20;5.20;;;;;;5077220;28;20508;-62
2023/10/15 02:35:39;;;;;;;9.23;3.80;;;7.30;1.00;;;;;;5076719;28;20461;-62
2023/10/15 02:38:10;;;;;;;9.70;4.60;;;7.30;1.00;;;;;;5076929;28;20440;-62
2023/10/15 02:40:56;;;;;;;9.77;5.00;;;7.30;1.00;;;;;;5077108;28;20457;-63
2023/10/15 02:43:26;;;;;;;11.50;5.23;;;7.20;1.00;;;;;;5077346;28;20457;-62
2023/10/15 02:45:54;;;;;;;8.73;5.10;;;7.20;99.90;;;;;;5080987;28;20764;-63
2023/10/15 02:48:22;;;;;;;10.43;4.17;;;7.20;94.90;;;;;;5080715;28;20544;-63
2023/10/15 02:51:00;;;;;;;10.20;4.90;;;7.20;66.40;;;;;;5080794;28;20485;-63
2023/10/15 02:53:33;;;;;;;12.33;5.70;;;7.20;99.90;;;;;;5080977;28;20483;-62
2023/10/15 02:56:00;;;;;;;10.63;5.60;;;7.20;84.30;;;;;;5080703;28;20510;-63
2023/10/15 02:58:29;;;;;;;10.00;5.53;;;7.30;95.50;;;;;;5081080;28;20445;-63
2023/10/15 03:01:06;;;;;;;8.60;7.57;;;7.20;48.20;;;;;;5081051;28;20548;-63
2023/10/15 03:03:34;;;;;;;12.20;8.50;;;7.20;21.90;;;;;;5080179;28;20496;-63
2023/10/15 03:06:02;;;;;;;12.07;8.20;;;7.30;67.10;;;;;;5080258;28;20538;-62
2023/10/15 03:08:35;;;;;;;9.73;7.57;;;7.30;48.40;;;;;;5079421;28;20825;-63
2023/10/15 03:11:11;;;;;;;11.17;7.07;;;7.30;47.10;;;;;;5080819;28;21024;-63
2023/10/15 03:13:49;;;;;;;11.87;7.37;;;7.30;49.20;;;;;;5080595;28;20495;-62
2023/10/15 03:16:21;;;;;;;11.23;7.90;;;7.40;46.10;;;;;;5080579;28;20553;-61
2023/10/15 03:18:49;;;;;;;9.77;6.73;;;7.30;98.60;;;;;;5080470;28;20840;-62
2023/10/15 03:21:24;;;;;;;13.53;8.13;;;7.30;91.10;;;;;;5080698;28;20460;-62
2023/10/15 03:23:55;;;;;;;11.70;8.90;;;7.40;67.60;;;;;;5080751;28;20551;-62
2023/10/15 03:26:22;;;;;;;11.17;7.63;;;7.40;94.10;;;;;;5080227;28;20821;-62
2023/10/15 03:28:58;;;;;;;12.87;7.97;;;7.40;85.30;;;;;;5080272;28;20818;-62
2023/10/15 03:31:27;;;;;;;13.30;8.77;;;7.40;95.80;;;;;;5079754;28;20493;-61
2023/10/15 03:36:50;;;;;;;10.30;8.53;;;7.40;99.90;;;;;;5079893;28;20517;-62
2023/10/15 03:39:24;;;;;;;11.97;9.07;;;7.40;99.90;;;;;;5080491;28;20928;-61
2023/10/15 03:42:09;;;;;;;15.27;9.23;;;7.40;99.90;;;;;;5080214;28;20983;-61
2023/10/15 03:44:40;;;;;;;13.17;8.93;;;7.40;99.90;;;;;;5080097;28;20564;-61
2023/10/15 03:47:07;;;;;;;10.23;9.23;;;7.40;99.90;;;;;;5080115;28;20461;-62
2023/10/15 03:49:35;;;;;;;14.30;9.03;;;7.50;99.90;;;;;;5079405;28;20457;-61
2023/10/15 03:52:09;;;;;;;13.27;8.20;;;7.40;99.90;;;;;;5079399;28;20518;-62
2023/10/15 03:54:37;;;;;;;12.07;8.70;;;7.60;99.90;;;;;;5079664;28;20741;-62
2023/10/15 03:57:06;;;;;;;10.80;9.50;;;7.60;99.90;;;;;;5079048;28;20504;-62
2023/10/15 03:59:42;;;;;;;10.73;9.60;;;7.60;99.90;;;;;;5079698;28;20759;-62
2023/10/15 04:02:22;;;;;;;11.87;10.60;;;7.50;99.90;;;;;;5079690;28;20467;-61
2023/10/15 04:04:56;;;;;;;16.90;12.97;;;7.50;99.90;;;;;;5079935;28;20511;-62
2023/10/15 04:07:25;;;;;;;14.17;12.30;;;7.30;99.90;;;;;;5079749;28;20791;-62
2023/10/15 04:09:52;;;;;;;14.63;13.13;;;7.40;99.90;;;;;;5079214;28;20840;-61
2023/10/15 04:12:20;;;;;;;16.17;14.57;;;7.40;99.90;;;;;;5079210;28;20517;-64
2023/10/15 04:14:48;;;;;;;18.33;16.10;;;7.40;99.90;;;;;;5079028;28;20823;-63
2023/10/15 04:17:16;;;;;;;19.10;17.20;;;7.30;99.90;;;;;;5079344;28;20561;-63
2023/10/15 04:19:43;;;;;;;18.30;16.50;;;7.40;99.90;;;;;;5079527;28;20985;-64
2023/10/15 04:22:14;;;;;;;17.87;15.97;;;7.40;99.90;;;;;;5079098;28;20460;-63
2023/10/15 04:24:46;;;;;;;18.13;16.43;;;7.40;99.90;;;;;;5079402;28;20450;-62
2023/10/15 04:27:16;;;;;;;17.87;15.97;;;7.40;99.90;;;;;;5079719;28;20579;-62
2023/10/15 04:29:51;;;;;;;17.77;15.87;;;7.40;99.90;;;;;;5078983;28;20457;-61
2023/10/15 04:32:28;;;;;;;18.30;15.97;;;7.40;99.90;;;;;;5079368;28;20905;-61
2023/10/15 04:35:01;;;;;;;17.23;15.13;;;7.40;99.90;;;;;;5078907;28;20518;-61
2023/10/15 04:37:29;;;;;;;17.63;15.80;;;7.30;99.90;;;;;;5078766;28;20466;-61
2023/10/15 04:39:58;;;;;;;15.57;13.97;;;7.30;99.90;;;;;;5078925;28;20559;-61
2023/10/15 04:42:37;;;;;;;16.23;14.67;;;7.20;99.90;;;;;;5078601;28;20507;-61
2023/10/15 04:45:20;;;;;;;16.57;14.37;;;7.30;99.90;;;;;;5078907;28;20559;-61
2023/10/15 04:47:51;;;;;;;16.57;14.80;;;7.30;99.90;;;;;;5078691;28;20908;-63
2023/10/15 04:50:18;;;;;;;16.37;14.27;;;7.40;99.90;;;;;;5078575;28;20493;-62
2023/10/15 04:52:46;;;;;;;16.80;15.00;;;7.40;99.90;;;;;;5078696;28;20523;-62
2023/10/15 04:55:16;;;;;;;15.57;14.07;;;7.40;99.90;;;;;;5078642;28;20507;-61
2023/10/15 04:57:45;;;;;;;16.37;12.90;;;7.40;99.90;;;;;;5078780;28;20519;-63
2023/10/15 05:00:16;;;;;;;17.73;14.27;;;7.30;99.90;;;;;;5078359;28;20542;-62
2023/10/15 05:02:44;;;;;;;14.00;12.50;;;7.30;99.90;;;;;;5078509;28;20465;-62
2023/10/15 05:05:12;;;;;;;10.87;8.43;;;7.30;99.90;;;;;;5078371;28;20436;-62
2023/10/15 05:07:39;;;;;;;10.30;7.67;;;7.10;99.90;;;;;;5078628;28;20530;-62
2023/10/15 05:10:07;;;;;;;9.50;6.50;;;6.80;1.00;;;;;;5078152;28;20484;-63
2023/10/15 05:12:34;;;;;;;8.90;6.63;;;6.60;1.00;;;;;;5077509;28;20544;-63
2023/10/15 05:15:02;;;;;;;8.83;7.20;;;6.80;1.00;;;;;;5078203;28;20457;-64
2023/10/15 05:17:31;;;;;;;10.10;7.73;;;6.70;1.00;;;;;;5078110;28;20728;-64
2023/10/15 05:19:58;;;;;;;8.27;5.60;;;6.80;11.70;;;;;;5077491;28;20464;-64
2023/10/15 05:22:27;;;;;;;6.83;4.50;;;6.80;1.00;;;;;;5078058;28;20956;-62
2023/10/15 05:24:54;;;;;;;7.33;5.07;;;6.90;1.00;;;;;;5078134;28;20548;-62
2023/10/15 05:27:21;;;;;;;5.40;4.90;;;6.90;1.00;;;;;;5078402;28;20510;-63
2023/10/15 05:29:49;;;;;;;5.13;4.50;;;6.90;1.00;;;;;;5077863;28;20462;-62
2023/10/15 05:32:16;;;;;;;4.80;4.20;;;6.80;1.00;;;;;;5078015;28;20515;-61
2023/10/15 05:34:43;;;;;;;8.13;4.53;;;6.90;1.00;;;;;;5078092;28;20830;-62
2023/10/15 05:37:10;;;;;;;5.30;4.23;;;6.90;1.00;;;;;;5077811;28;20543;-63
2023/10/15 05:39:41;;;;;;;6.67;3.83;;;7.00;1.00;;;;;;5077369;28;20461;-63
2023/10/15 05:42:08;;;;;;;6.50;5.40;;;6.90;1.00;;;;;;5077764;28;20468;-62
2023/10/15 05:44:37;;;;;;;5.93;4.00;;;6.80;1.00;;;;;;5077805;28;20461;-62
2023/10/15 05:47:04;;;;;;;5.90;3.40;;;6.90;1.00;;;;;;5077624;28;20560;-62
2023/10/15 05:49:32;;;;;;;5.30;3.43;;;6.90;1.00;;;;;;5077150;28;20461;-62
2023/10/15 05:51:59;;;;;;;5.77;4.03;;;6.90;1.00;;;;;;5077610;28;20496;-61
2023/10/15 05:54:26;;;;;;;4.47;3.57;;;6.90;1.00;;;;;;5077967;28;20461;-63
2023/10/15 05:56:55;;;;;;;5.00;3.93;;;6.90;1.00;;;;;;5077573;28;20560;-62
2023/10/15 05:59:22;;;;;;;4.30;3.80;;;6.90;1.00;;;;;;5077900;28;20472;-62
2023/10/15 06:01:50;;;;;;;9.00;4.43;;;6.90;1.00;;;;;;5077264;28;20863;-62
2023/10/15 06:04:18;;;;;;;4.33;3.93;;;6.90;1.00;;;;;;5077480;28;20807;-62
2023/10/15 06:06:45;;;;;;;4.07;3.20;;;6.90;1.00;;;;;;5077214;28;20433;-62
2023/10/15 06:09:12;;;;;;;4.57;3.87;;;6.80;1.00;;;;;;5077345;28;20485;-62
2023/10/15 06:11:40;;;;;;;4.67;3.70;;;6.80;1.00;;;;;;5077063;28;20591;-62
2023/10/15 06:14:08;;;;;;;8.63;4.17;;;6.70;1.00;;;;;;5076924;28;20435;-62
2023/10/15 06:16:36;;;;;;;5.37;3.43;;;6.80;1.00;;;;;;5077274;28;20440;-62
2023/10/15 06:19:04;;;;;;;7.00;3.97;;;6.80;1.00;;;;;;5076824;28;20432;-63
2023/10/15 06:21:32;;;;;;;5.17;3.40;;;6.80;1.00;;;;;;5076887;28;20437;-64
2023/10/15 06:23:59;;;;;;;4.63;3.13;;;6.80;1.00;;;;;;5077038;28;20880;-62
2023/10/15 06:26:26;;;;;;;7.73;3.37;;;6.70;1.00;;;;;;5076677;28;20482;-63
2023/10/15 06:28:54;;;;;;;5.70;3.63;;;6.70;1.00;;;;;;5077161;28;20549;-62
2023/10/15 06:31:23;;;;;;;4.33;2.80;;;6.70;4.60;;;;;;5077435;28;20583;-62
2023/10/15 06:33:50;;;;;;;3.77;3.10;;;6.70;2.50;;;;;;5077111;28;20510;-62
2023/10/15 06:36:18;;;;;;;4.17;2.90;;;6.70;59.70;;;;;;5077167;28;20553;-63
2023/10/15 06:38:45;;;;;;;4.10;2.83;;;6.70;93.40;;;;;;5077131;28;20436;-62
2023/10/15 06:41:12;;;;;;;7.00;2.90;;;6.80;99.90;;;;;;5077153;28;20547;-62
2023/10/15 06:43:39;;;;;;;5.67;3.27;;;6.80;91.80;;;;;;5076982;28;20572;-62
2023/10/15 06:46:07;;;;;;;5.10;3.00;;;6.80;24.10;;;;;;5076936;28;20511;-62
2023/10/15 06:48:37;;;;;;;4.10;3.20;;;6.90;12.00;;;;;;5077151;28;20475;-62
2023/10/15 06:51:06;;;;;;;4.20;2.77;;;6.90;1.00;;;;;;5077022;28;20468;-64
2023/10/15 06:53:34;;;;;;;3.60;2.70;;;6.90;1.00;;;;;;5076678;28;20859;-63
2023/10/15 06:56:01;;;;;;;3.77;2.60;;;6.80;1.00;;;;;;5076875;28;20498;-62
2023/10/15 06:58:29;;;;;;;5.33;2.80;;;7.00;1.00;;;;;;5076917;28;20461;-62
2023/10/15 07:00:57;;;;;;;5.97;2.90;;;6.90;1.00;;;;;;5076910;28;20457;-62
2023/10/15 07:03:24;;;;;;;6.27;3.07;;;7.00;1.00;;;;;;5076301;28;20497;-62
2023/10/15 07:05:53;;;;;;;9.00;3.10;;;7.00;1.00;;;;;;5076496;28;20465;-62
2023/10/15 07:08:20;;;;;;;4.50;3.10;;;7.10;1.00;;;;;;5076522;28;20984;-62
2023/10/15 07:10:49;;;;;;;4.30;2.90;;;7.10;1.00;;;;;;5076615;28;20438;-62
2023/10/15 07:13:18;;;;;;;3.60;2.87;;;7.10;1.00;;;;;;5076462;28;20515;-63
2023/10/15 07:15:45;;;;;;;4.33;2.77;;;7.20;1.00;;;;;;5076323;28;20438;-63
2023/10/15 07:18:13;;;;;;;3.90;2.97;;;7.10;1.00;;;;;;5076384;28;20461;-62
2023/10/15 07:20:40;;;;;;;4.83;3.50;;;7.20;1.00;;;;;;5076743;28;20832;-62
2023/10/15 07:23:09;;;;;;;5.30;3.00;;;7.20;1.00;;;;;;5076738;28;20870;-62
2023/10/15 07:25:37;;;;;;;4.30;3.00;;;7.30;1.00;;;;;;5076873;28;20483;-62
2023/10/15 07:28:05;;;;;;;4.80;3.53;;;7.30;1.00;;;;;;5076367;28;20461;-62
2023/10/15 07:30:33;;;;;;;6.93;3.70;;;7.30;1.00;;;;;;5077480;28;20754;-63
2023/10/15 07:33:01;;;;;;;5.40;3.63;;;7.40;1.00;;;;;;5080129;28;20492;-62
2023/10/15 07:35:30;;;;;;;5.10;3.67;;;7.40;1.00;;;;;;5079870;28;20464;-63
2023/10/15 07:37:57;;;;;;;3.97;3.57;;;7.30;1.00;;;;;;5079787;28;20501;-62
2023/10/15 07:40:27;;;;;;;6.23;3.90;;;7.30;1.00;;;;;;5080026;28;20878;-62
2023/10/15 07:42:58;;;;;;;4.57;3.37;;;7.30;1.00;;;;;;5079975;28;20436;-62
2023/10/15 07:45:28;;;;;;;6.10;3.70;;;7.30;1.00;;;;;;5079705;28;20504;-63
2023/10/15 07:47:55;;;;;;;6.13;4.03;;;7.40;1.00;;;;;;5079817;28;20742;-63
2023/10/15 07:50:23;;;;;;;5.73;4.33;;;7.50;7.70;;;;;;5079857;28;20454;-62
2023/10/15 07:52:51;;;;;;;4.30;3.37;;;7.50;1.00;;;;;;5080075;28;20525;-62
2023/10/15 07:55:19;;;;;;;5.60;4.10;;;7.50;21.40;;;;;;5070288;28;20445;-64
2023/10/15 07:57:47;;;;;;;4.57;3.67;;;7.60;6.90;;;;;;5078632;28;20501;-63
2023/10/15 08:00:16;;;;;;;6.43;4.00;;;7.40;1.00;;;;;;5078598;28;20878;-63
2023/10/15 08:02:45;;;;;;;8.00;4.17;;;7.40;1.00;;;;;;5079540;28;20504;-63
2023/10/15 08:05:13;;;;;;;5.33;4.57;;;7.40;1.00;;;;;;5079939;28;20897;-62
2023/10/15 08:07:41;;;;;;;7.13;4.10;;;7.70;19.70;;;;;;5079694;28;20866;-63
2023/10/15 08:10:09;;;;;;;8.60;5.10;;;7.60;1.00;;;;;;5079407;28;20485;-63
2023/10/15 08:12:37;;;;;;;5.30;4.30;;;7.90;1.00;;;;;;5078932;28;20995;-62
2023/10/15 08:15:07;;;;;;;5.63;5.03;;;8.00;1.00;;;;;;5078528;28;20493;-63
2023/10/15 08:17:35;;;;;;;4.83;4.23;;;8.00;1.00;;;;;;5077938;28;20436;-63
2023/10/15 08:20:04;;;;;;;6.50;4.57;;;8.10;1.00;;;;;;5077477;28;20783;-63
2023/10/15 08:22:32;;;;;;;6.10;4.07;;;8.00;1.00;;;;;;5077898;28;20890;-63
2023/10/15 08:24:59;;;;;;;7.27;4.47;;;8.10;1.00;;;;;;5077451;28;20941;-65
2023/10/15 08:27:26;;;;;;;6.00;3.80;;;8.40;1.00;;;;;;5077383;28;20514;-66
2023/10/15 08:29:54;;;;;;;6.90;4.50;;;8.50;1.00;;;;;;5078070;28;20561;-66
2023/10/15 08:32:26;;;;;;;4.67;4.13;;;8.80;1.00;;;;;;5078719;28;20495;-68
2023/10/15 08:34:54;;;;;;;4.30;2.90;;;8.80;99.90;;;;;;5079034;28;20551;-65
2023/10/15 08:37:22;;;;;;;5.13;2.23;;;9.10;99.90;;;;;;5079687;28;20455;-69
2023/10/15 08:39:50;;;;;;;3.33;1.93;;;8.90;91.10;;;;;;5079347;28;20920;-71
2023/10/15 08:42:24;;;;;;;3.40;2.40;;;8.80;69.80;;;;;;5078609;28;20791;-68
2023/10/15 08:44:56;;;;;;;3.60;2.33;;;8.90;37.80;;;;;;5078902;28;20462;-68
2023/10/15 08:47:26;;;;;;;3.60;2.33;;;8.80;1.00;;;;;;5078914;28;20494;-67
2023/10/15 08:49:54;;;;;;;3.33;2.43;;;8.60;1.00;;;;;;5078993;28;20894;-67
2023/10/15 08:52:23;;;;;;;3.60;2.30;;;8.70;37.40;;;;;;5078710;28;20496;-67
2023/10/15 08:54:52;;;;;;;4.90;2.30;;;8.90;99.90;;;;;;5080300;28;20551;-67
2023/10/15 08:57:25;;;;;;;4.60;2.27;;;8.90;99.90;;;;;;5079572;28;20559;-69
2023/10/15 08:59:54;;;;;;;6.27;3.00;;;9.10;99.90;;;;;;5080729;28;20469;-69
2023/10/15 09:02:23;;;;;;;7.70;3.67;;;9.00;1.00;;;;;;5081710;28;20898;-67
2023/10/15 09:04:53;;;;;;;3.70;2.43;;;8.90;1.00;;;;;;5081921;28;20568;-68
2023/10/15 09:07:20;;;;;;;2.90;1.90;;;9.00;1.00;;;;;;5083406;28;20457;-68
2023/10/15 09:09:52;;;;;;;3.17;2.73;;;8.90;1.00;;;;;;5082471;28;20488;-68
2023/10/15 09:12:21;;;;;;;3.67;2.60;;;9.00;1.00;;;;;;5081007;28;20464;-67
2023/10/15 09:14:48;;;;;;;5.33;3.23;;;9.00;1.00;;;;;;5081780;28;20469;-68
2023/10/15 09:17:18;;;;;;;13.63;4.00;;;8.80;1.00;;;;;;5080068;28;20751;-65
2023/10/15 09:19:47;;;;;;;4.57;3.53;;;8.80;1.00;;;;;;5078256;28;20912;-64
2023/10/15 09:22:16;;;;;;;5.30;4.30;;;9.00;1.00;;;;;;5077592;28;20465;-65
2023/10/15 09:24:44;;;;;;;5.30;4.67;;;9.00;1.00;;;;;;5078150;28;20544;-65
2023/10/15 09:27:13;;;;;;;4.37;3.90;;;9.10;1.00;;;;;;5077884;28;20526;-66
2023/10/15 09:29:41;;;;;;;5.87;5.27;;;9.20;1.00;;;;;;5077351;28;20465;-65
2023/10/15 09:32:09;;;;;;;6.90;5.90;;;9.20;1.00;;;;;;5077599;28;20489;-65
2023/10/15 09:34:37;;;;;;;8.00;5.67;;;9.20;1.00;;;;;;5077766;28;20457;-65
2023/10/15 09:37:06;;;;;;;6.20;5.60;;;9.20;1.00;;;;;;5077989;28;20453;-65
2023/10/15 09:39:38;;;;;;;8.60;6.83;;;9.10;1.00;;;;;;5076932;28;20457;-65
2023/10/15 09:42:05;;;;;;;7.50;5.90;;;9.10;1.00;;;;;;5077598;28;20462;-64
2023/10/15 09:44:33;;;;;;;7.23;6.40;;;8.90;1.00;;;;;;5077842;28;20501;-65
2023/10/15 09:47:02;;;;;;;8.20;6.83;;;9.00;1.00;;;;;;5077135;28;20764;-63
2023/10/15 09:49:31;;;;;;;10.70;6.83;;;9.20;1.00;;;;;;5077587;28;20462;-64
2023/10/15 09:52:04;;;;;;;6.50;5.90;;;9.40;1.00;;;;;;5077177;28;20489;-68
2023/10/15 09:54:35;;;;;;;12.80;7.70;;;9.20;1.00;;;;;;5076680;28;20461;-63
2023/10/15 09:57:03;;;;;;;8.23;7.27;;;9.30;99.90;;;;;;5077571;28;20547;-64
2023/10/15 09:59:31;;;;;;;8.80;7.80;;;9.30;99.90;;;;;;5077753;28;20461;-63
2023/10/15 10:02:05;;;;;;;10.00;9.00;;;9.10;99.90;;;;;;5077510;28;20557;-63
2023/10/15 10:04:59;;;;;;;8.93;8.00;;;9.10;99.90;;;;;;5077490;28;20965;-65
2023/10/15 10:07:47;;;;;;;9.63;8.63;;;8.90;99.90;;;;;;5071911;28;20551;-67
2023/10/15 10:10:51;;;;;;;9.43;8.53;;;8.60;1.00;;;;;;5077243;28;20485;-65
2023/10/15 10:14:02;;;;;;;8.93;8.03;;;8.70;1.00;;;;;;5077240;28;20475;-62
2023/10/15 10:16:31;;;;;;;9.07;8.27;;;8.70;1.00;;;;;;5077056;28;20457;-62
2023/10/15 10:18:59;;;;;;;9.80;8.90;;;8.60;72.20;;;;;;5077253;28;20758;-64
2023/10/15 10:21:32;;;;;;;8.03;7.27;;;8.60;99.90;;;;;;5077433;28;20453;-65
2023/10/15 10:24:02;;;;;;;9.50;7.23;;;8.70;99.90;;;;;;5076797;28;20481;-62
2023/10/15 10:26:34;;;;;;;6.23;5.00;;;9.00;99.90;;;;;;5076952;28;20534;-62
2023/10/15 10:29:02;;;;;;;6.97;4.70;;;9.10;34.50;;;;;;5077643;28;20431;-62
2023/10/15 10:31:31;;;;;;;10.07;5.30;;;9.10;1.00;;;;;;5076546;28;20457;-63
2023/10/15 10:34:03;;;;;;;5.43;4.50;;;9.40;1.00;;;;;;5077075;28;20504;-63
2023/10/15 10:36:31;;;;;;;4.40;3.93;;;9.50;1.00;;;;;;5076960;28;20461;-63
2023/10/15 10:39:11;;;;;;;4.93;4.40;;;9.60;1.00;;;;;;5077104;28;20543;-64
2023/10/15 10:41:42;;;;;;;4.47;3.60;;;9.90;1.00;;;;;;5076872;28;20464;-63
2023/10/15 10:44:12;;;;;;;4.63;3.10;;;10.10;1.00;;;;;;5077253;28;20548;-63
2023/10/15 10:46:43;;;;;;;5.13;3.33;;;10.00;1.00;;;;;;5077109;28;20465;-65
2023/10/15 10:49:14;;;;;;;4.60;4.13;;;9.60;99.90;;;;;;5076974;28;20509;-63
2023/10/15 10:51:42;;;;;;;6.47;4.60;;;9.40;99.90;;;;;;5076688;28;20468;-63
2023/10/15 10:54:29;;;;;;;4.90;3.80;;;9.10;99.90;;;;;;5076986;28;20493;-64
2023/10/15 10:57:06;;;;;;;6.50;4.40;;;9.20;1.00;;;;;;5076861;28;20479;-63
2023/10/15 10:59:34;;;;;;;5.30;3.90;;;9.50;1.00;;;;;;5076304;28;20442;-62
2023/10/15 11:02:02;;;;;;;4.87;3.63;;;9.60;1.00;;;;;;5074987;28;20457;-63
2023/10/15 11:04:29;;;;;;;5.03;4.40;;;9.90;99.90;;;;;;5075699;28;20801;-63
2023/10/15 11:06:59;;;;;;;7.30;4.50;;;10.00;99.90;;;;;;5079263;28;20556;-64
2023/10/15 11:09:28;;;;;;;5.83;4.43;;;10.40;99.90;;;;;;5078976;28;20528;-63
2023/10/15 11:11:58;;;;;;;4.73;4.23;;;10.70;99.90;;;;;;5079415;28;20819;-66
2023/10/15 11:14:28;;;;;;;5.63;4.50;;;10.80;99.90;;;;;;5080135;28;20472;-65
2023/10/15 11:16:56;;;;;;;4.93;4.43;;;10.30;1.00;;;;;;5078910;28;20929;-64
2023/10/15 11:19:25;;;;;;;7.93;5.67;;;10.60;99.90;;;;;;5078194;28;20534;-65
2023/10/15 11:21:53;;;;;;;6.57;4.40;;;10.60;27.70;;;;;;5078470;28;20836;-65
2023/10/15 11:24:23;;;;;;;7.60;5.07;;;10.40;1.00;;;;;;5078776;28;20456;-64
2023/10/15 11:26:54;;;;;;;10.10;4.70;;;10.30;39.70;;;;;;5078673;28;20457;-63
2023/10/15 11:29:23;;;;;;;6.20;3.90;;;10.40;15.30;;;;;;5079254;28;20836;-65
2023/10/15 11:31:56;;;;;;;4.57;3.53;;;10.80;66.70;;;;;;5079412;28;20508;-63
2023/10/15 11:34:25;;;;;;;4.87;3.00;;;11.30;46.10;;;;;;5079421;28;20922;-64
2023/10/15 11:36:55;;;;;;;5.37;3.30;;;11.80;1.00;;;;;;5079645;28;20524;-64
2023/10/15 11:39:29;;;;;;;5.33;3.00;;;12.50;1.00;;;;;;5079144;28;20465;-63
2023/10/15 11:41:57;;;;;;;4.93;3.20;;;12.40;99.90;;;;;;5078350;28;20464;-64
2023/10/15 11:44:30;;;;;;;5.30;3.23;;;12.50;99.90;;;;;;5080018;28;20432;-64
2023/10/15 11:47:01;;;;;;;5.90;3.67;;;12.40;81.70;;;;;;5079818;28;20487;-63
2023/10/15 11:49:30;;;;;;;4.53;3.03;;;12.40;19.40;;;;;;5078879;28;20564;-63
2023/10/15 11:51:58;;;;;;;4.73;3.23;;;12.40;1.00;;;;;;5079754;28;20461;-63
2023/10/15 11:54:28;;;;;;;4.60;3.20;;;12.10;1.00;;;;;;5079881;28;20493;-62
2023/10/15 11:56:56;;;;;;;5.90;3.50;;;12.20;1.00;;;;;;5079000;28;20834;-63
2023/10/15 11:59:25;;;;;;;10.80;6.10;;;12.90;1.00;;;;;;5077564;28;20468;-62
2023/10/15 12:01:54;;;;;;;3.83;3.20;;;13.00;1.00;;;;;;5079156;28;20472;-61
2023/10/15 12:04:24;;;;;;;4.63;3.33;;;13.50;1.00;;;;;;5078535;28;20941;-62
2023/10/15 12:06:53;;;;;;;3.63;2.87;;;13.70;1.00;;;;;;5079774;28;20467;-62
2023/10/15 12:09:24;;;;;;;4.20;3.20;;;13.70;1.00;;;;;;5079469;28;20575;-61
2023/10/15 12:11:52;;;;;;;5.17;3.60;;;12.60;99.90;;;;;;5079439;28;20866;-61
2023/10/15 12:14:19;;;;;;;3.80;3.03;;;12.30;99.90;;;;;;5078013;28;20538;-61
2023/10/15 12:16:47;;;;;;;5.50;3.47;;;12.20;99.90;;;;;;5077087;28;20491;-63
2023/10/15 12:19:15;;;;;;;4.20;3.27;;;11.90;99.90;;;;;;5077462;28;20439;-61
2023/10/15 12:21:44;;;;;;;3.93;3.17;;;11.70;99.90;;;;;;5077358;28;20492;-62
2023/10/15 12:24:13;;;;;;;7.87;3.30;;;11.80;99.90;;;;;;5077268;28;20496;-62
2023/10/15 12:26:42;;;;;;;3.93;2.80;;;12.10;99.90;;;;;;5077371;28;20489;-62
2023/10/15 12:29:13;;;;;;;4.10;3.50;;;11.90;99.90;;;;;;5079045;28;20458;-61
2023/10/15 12:31:43;;;;;;;3.43;2.90;;;12.40;99.90;;;;;;5078710;28;20465;-61
2023/10/15 12:34:11;;;;;;;4.20;2.77;;;12.80;99.90;;;;;;5078706;28;20602;-62
2023/10/15 12:36:39;;;;;;;4.10;2.90;;;12.80;99.90;;;;;;5078694;28;20461;-60
2023/10/15 12:39:09;;;;;;;3.47;2.17;;;12.80;99.90;;;;;;5078621;28;20462;-62
2023/10/15 12:41:38;;;;;;;4.03;2.80;;;12.60;99.90;;;;;;5078646;28;20468;-61
2023/10/15 12:44:10;;;;;;;2.67;2.40;;;12.00;99.90;;;;;;5063412;28;20467;-62
2023/10/15 12:46:38;;;;;;;5.30;2.10;;;12.20;99.90;;;;;;5057822;28;20468;-60
2023/10/15 12:49:07;;;;;;;4.27;2.13;;;12.80;99.90;;;;;;5058762;28;20547;-61
2023/10/15 12:51:35;;;;;;;2.80;2.30;;;13.00;99.90;;;;;;5058084;28;20462;-60
2023/10/15 12:54:03;;;;;;;2.43;1.60;;;13.00;99.90;;;;;;5058454;28;20792;-60
2023/10/15 12:56:33;;;;;;;2.40;1.97;;;13.40;99.90;;;;;;5058421;28;20894;-61
2023/10/15 12:59:00;;;;;;;3.00;1.90;;;12.60;99.90;;;;;;5058528;28;20473;-61
2023/10/15 13:01:28;;;;;;;3.50;1.90;;;12.50;99.90;;;;;;5057880;28;20454;-61
2023/10/15 13:03:58;;;;;;;4.00;2.10;;;12.40;99.90;;;;;;5058164;28;20432;-61
2023/10/15 13:06:29;;;;;;;4.83;2.30;;;11.30;75.80;;;;;;5058473;28;20465;-61
2023/10/15 13:08:56;;;;;;;3.50;2.10;;;10.90;99.90;;;;;;5057759;28;20486;-63
2023/10/15 13:11:24;;;;;;;3.80;2.00;;;10.80;99.90;;;;;;5057767;28;20478;-61
2023/10/15 13:13:53;;;;;;;4.30;2.10;;;10.50;99.90;;;;;;5057347;28;20770;-60
2023/10/15 13:16:20;;;;;;;6.87;2.40;;;10.30;99.90;;;;;;5058224;28;20458;-61
2023/10/15 13:18:52;;;;;;;5.13;2.70;;;10.50;1.00;;;;;;5058005;28;20911;-61